createdAt,value
2018-02-12T00:00:33.155Z,7.27
2018-02-12T00:03:00.777Z,7.63
2018-02-12T00:05:28.371Z,8.37
2018-02-12T00:07:55.933Z,8.03
2018-02-12T00:10:23.564Z,7.53
2018-02-12T00:12:51.122Z,7.50
2018-02-12T00:15:18.680Z,8.03
2018-02-12T00:17:46.287Z,8.40
2018-02-12T00:20:14.274Z,8.70
2018-02-12T00:22:41.814Z,8.83
2018-02-12T00:25:09.797Z,9.43
2018-02-12T00:27:37.378Z,8.70
2018-02-12T00:30:04.968Z,9.80
2018-02-12T00:32:32.554Z,10.63
2018-02-12T00:35:00.538Z,11.23
2018-02-12T00:37:28.128Z,11.93
2018-02-12T00:39:55.761Z,11.43
2018-02-12T00:42:23.278Z,11.60
2018-02-12T00:44:50.855Z,10.67
2018-02-12T00:47:18.853Z,10.57
2018-02-12T00:49:46.399Z,11.17
2018-02-12T00:52:13.984Z,11.03
2018-02-12T00:54:41.598Z,10.40
2018-02-12T00:57:09.596Z,9.50
2018-02-12T00:59:37.176Z,12.10
2018-02-12T01:02:04.715Z,13.33
2018-02-12T01:04:32.307Z,12.50
2018-02-12T01:06:59.930Z,14.07
2018-02-12T01:09:27.541Z,14.43
2018-02-12T01:11:55.130Z,13.67
2018-02-12T01:14:23.098Z,13.23
2018-02-12T01:16:51.083Z,13.77
2018-02-12T01:19:18.673Z,15.73
2018-02-12T01:21:46.250Z,12.47
2018-02-12T01:24:13.846Z,12.87
2018-02-12T01:26:42.033Z,13.57
2018-02-12T01:29:09.559Z,12.90
2018-02-12T01:31:41.110Z,13.43
2018-02-12T01:34:08.687Z,12.07
2018-02-12T01:36:36.266Z,13.30
2018-02-12T01:39:03.907Z,12.50
2018-02-12T01:41:31.457Z,12.87
2018-02-12T01:43:59.431Z,11.47
2018-02-12T01:46:27.131Z,10.90
2018-02-12T01:48:54.682Z,10.93
2018-02-12T01:51:22.291Z,10.47
2018-02-12T01:53:49.882Z,11.97
2018-02-12T01:56:17.429Z,9.97
2018-02-12T01:58:44.983Z,10.73
2018-02-12T02:01:13.005Z,10.00
2018-02-12T02:03:40.558Z,10.53
2018-02-12T02:06:08.107Z,10.33
2018-02-12T02:08:35.719Z,10.87
2018-02-12T02:11:03.737Z,11.10
2018-02-12T02:13:31.319Z,10.80
2018-02-12T02:15:58.903Z,9.50
2018-02-12T02:18:26.489Z,10.20
2018-02-12T02:20:54.051Z,10.97
2018-02-12T02:23:21.595Z,9.63
2018-02-12T02:25:49.215Z,9.60
2018-02-12T02:28:16.830Z,10.10
2018-02-12T02:30:44.442Z,9.23
2018-02-12T02:33:11.999Z,9.07
2018-02-12T02:35:39.582Z,8.27
2018-02-12T02:38:07.154Z,7.07
2018-02-12T02:40:34.760Z,6.33
2018-02-12T02:43:02.328Z,2.23
2018-02-12T02:45:29.907Z,2.03
2018-02-12T02:47:57.495Z,1.47
2018-02-12T02:50:25.024Z,1.30
2018-02-12T02:52:52.662Z,1.87
2018-02-12T02:55:20.265Z,1.20
2018-02-12T02:57:47.795Z,1.33
2018-02-12T03:00:15.799Z,1.50
2018-02-12T03:02:43.306Z,1.40
2018-02-12T03:05:10.819Z,1.77
2018-02-12T03:07:38.411Z,1.37
2018-02-12T03:10:06.026Z,1.10
2018-02-12T03:12:33.601Z,1.30
2018-02-12T03:15:01.199Z,1.67
2018-02-12T03:17:28.827Z,1.50
2018-02-12T03:19:56.399Z,1.30
2018-02-12T03:22:23.993Z,1.50
2018-02-12T03:24:51.516Z,1.30
2018-02-12T03:27:19.072Z,1.37
2018-02-12T03:29:46.683Z,1.30
2018-02-12T03:32:14.234Z,1.30
2018-02-12T03:34:41.811Z,1.40
2018-02-12T03:37:09.391Z,1.27
2018-02-12T03:39:36.959Z,1.20
2018-02-12T03:42:04.547Z,1.40
2018-02-12T03:44:32.159Z,1.40
2018-02-12T03:46:59.699Z,1.50
2018-02-12T03:49:27.649Z,1.50
2018-02-12T03:51:55.248Z,1.50
2018-02-12T03:54:22.825Z,1.50
2018-02-12T03:56:50.398Z,1.40
2018-02-12T03:59:18.002Z,1.60
2018-02-12T04:01:45.913Z,1.47
2018-02-12T04:04:13.478Z,1.40
2018-02-12T04:06:41.048Z,1.33
2018-02-12T04:09:08.595Z,1.30
2018-02-12T04:11:36.162Z,1.40
2018-02-12T04:14:03.781Z,1.27
2018-02-12T04:16:31.310Z,1.30
2018-02-12T04:18:59.286Z,1.30
2018-02-12T04:21:27.269Z,1.43
2018-02-12T04:23:54.849Z,2.00
2018-02-12T04:26:22.411Z,1.70
2018-02-12T04:28:50.007Z,1.40
2018-02-12T04:31:17.616Z,1.50
2018-02-12T04:33:45.547Z,1.50
2018-02-12T04:36:13.110Z,1.53
2018-02-12T04:38:41.078Z,1.53
2018-02-12T04:41:08.990Z,1.70
2018-02-12T04:43:36.571Z,2.57
2018-02-12T04:46:04.180Z,1.83
2018-02-12T04:48:31.731Z,1.80
2018-02-12T04:50:59.293Z,2.03
2018-02-12T04:53:26.880Z,1.83
2018-02-12T04:55:54.458Z,1.97
2018-02-12T04:58:21.948Z,2.00
2018-02-12T05:00:49.866Z,2.30
2018-02-12T05:03:17.381Z,2.30
2018-02-12T05:05:44.934Z,2.47
2018-02-12T05:08:12.913Z,2.80
2018-02-12T05:10:40.479Z,2.27
2018-02-12T05:13:08.023Z,2.30
2018-02-12T05:15:36.042Z,1.80
2018-02-12T05:18:03.668Z,2.60
2018-02-12T05:20:31.285Z,1.87
2018-02-12T05:22:58.885Z,2.70
2018-02-12T05:25:26.463Z,2.20
2018-02-12T05:27:54.062Z,2.60
2018-02-12T05:30:21.677Z,2.40
2018-02-12T05:32:54.622Z,2.30
2018-02-12T05:35:22.200Z,2.63
2018-02-12T05:37:49.822Z,2.27
2018-02-12T05:40:17.426Z,2.90
2018-02-12T05:42:45.038Z,2.40
2018-02-12T05:45:12.641Z,2.73
2018-02-12T05:47:40.307Z,2.80
2018-02-12T05:50:07.862Z,2.70
2018-02-12T05:52:35.430Z,2.97
2018-02-12T05:55:03.040Z,3.10
2018-02-12T05:57:30.637Z,2.50
2018-02-12T05:59:58.202Z,2.57
2018-02-12T06:02:25.792Z,2.70
2018-02-12T06:04:53.335Z,3.40
2018-02-12T06:07:20.927Z,3.07
2018-02-12T06:09:48.509Z,2.90
2018-02-12T06:12:16.437Z,2.67
2018-02-12T06:14:43.971Z,2.47
2018-02-12T06:17:11.543Z,3.10
2018-02-12T06:19:39.138Z,2.60
2018-02-12T06:22:06.642Z,3.23
2018-02-12T06:24:34.186Z,2.73
2018-02-12T06:27:01.735Z,2.97
2018-02-12T06:29:29.769Z,2.43
2018-02-12T06:31:57.305Z,2.83
2018-02-12T06:34:24.843Z,3.07
2018-02-12T06:36:52.438Z,2.83
2018-02-12T06:39:20.015Z,2.30
2018-02-12T06:41:47.520Z,2.83
2018-02-12T06:44:15.096Z,2.90
2018-02-12T06:46:42.721Z,2.70
2018-02-12T06:49:10.211Z,3.13
2018-02-12T06:51:37.931Z,2.90
2018-02-12T06:54:05.903Z,3.20
2018-02-12T06:56:33.494Z,2.50
2018-02-12T06:59:01.073Z,3.10
2018-02-12T07:01:28.649Z,2.73
2018-02-12T07:03:56.187Z,2.57
2018-02-12T07:06:23.805Z,2.93
2018-02-12T07:08:51.430Z,2.43
2018-02-12T07:11:18.970Z,3.13
2018-02-12T07:13:46.565Z,2.50
2018-02-12T07:16:14.546Z,3.13
2018-02-12T07:18:42.119Z,3.10
2018-02-12T07:21:09.645Z,2.87
2018-02-12T07:23:37.632Z,2.50
2018-02-12T07:26:05.195Z,2.60
2018-02-12T07:28:32.827Z,2.37
2018-02-12T07:31:00.442Z,2.90
2018-02-12T07:33:28.017Z,2.83
2018-02-12T07:35:55.627Z,3.47
2018-02-12T07:38:23.186Z,2.90
2018-02-12T07:40:50.791Z,2.90
2018-02-12T07:43:18.375Z,2.63
2018-02-12T07:45:45.957Z,2.67
2018-02-12T07:48:13.538Z,2.90
2018-02-12T07:50:41.061Z,3.03
2018-02-12T07:53:08.642Z,2.77
2018-02-12T07:55:36.215Z,3.07
2018-02-12T07:58:03.824Z,3.07
2018-02-12T08:00:31.758Z,2.63
2018-02-12T08:02:59.378Z,2.93
2018-02-12T08:05:27.407Z,2.30
2018-02-12T08:07:55.012Z,2.77
2018-02-12T08:10:22.594Z,3.07
2018-02-12T08:12:50.235Z,2.80
2018-02-12T08:15:17.770Z,2.63
2018-02-12T08:17:45.786Z,2.53
2018-02-12T08:20:13.460Z,2.53
2018-02-12T08:22:41.764Z,2.27
2018-02-12T08:25:09.323Z,2.70
2018-02-12T08:27:37.976Z,2.90
2018-02-12T08:30:05.626Z,2.57
2018-02-12T08:32:35.274Z,2.83
2018-02-12T08:35:02.859Z,2.03
2018-02-12T08:37:30.864Z,2.47
2018-02-12T08:39:58.432Z,2.83
2018-02-12T08:42:25.991Z,2.53
2018-02-12T08:44:53.532Z,2.10
2018-02-12T08:47:21.144Z,2.27
2018-02-12T08:49:48.733Z,2.60
2018-02-12T08:52:16.333Z,2.87
2018-02-12T08:54:43.997Z,2.40
2018-02-12T08:57:11.542Z,2.20
2018-02-12T08:59:39.180Z,2.97
2018-02-12T09:02:06.722Z,2.50
2018-02-12T09:04:34.261Z,2.20
2018-02-12T09:07:02.433Z,2.57
2018-02-12T09:09:30.034Z,2.23
2018-02-12T09:11:57.570Z,7.00
2018-02-12T09:14:25.191Z,2.20
2018-02-12T09:16:52.857Z,2.53
2018-02-12T09:19:20.434Z,2.07
2018-02-12T09:21:48.037Z,2.90
2018-02-12T09:24:15.577Z,2.43
2018-02-12T09:26:43.278Z,2.23
2018-02-12T09:29:10.819Z,2.57
2018-02-12T09:31:38.408Z,2.43
2018-02-12T09:34:06.007Z,2.37
2018-02-12T09:36:34.039Z,2.60
2018-02-12T09:39:01.543Z,2.27
2018-02-12T09:41:29.093Z,2.27
2018-02-12T09:43:56.634Z,2.20
2018-02-12T09:46:24.603Z,2.60
2018-02-12T09:48:52.174Z,2.20
2018-02-12T09:51:19.835Z,2.57
2018-02-12T09:53:47.445Z,2.17
2018-02-12T09:56:15.035Z,2.27
2018-02-12T09:58:43.032Z,2.33
2018-02-12T10:01:11.451Z,2.40
2018-02-12T10:03:39.050Z,2.27
2018-02-12T10:06:06.621Z,2.80
2018-02-12T10:08:34.242Z,1.83
2018-02-12T10:11:01.777Z,2.67
2018-02-12T10:13:29.395Z,2.80
2018-02-12T10:15:56.953Z,2.43
2018-02-12T10:18:24.532Z,2.73
2018-02-12T10:20:52.138Z,2.33
2018-02-12T10:23:19.721Z,2.83
2018-02-12T10:25:47.738Z,2.37
2018-02-12T10:28:15.341Z,2.77
2018-02-12T10:30:43.239Z,2.67
2018-02-12T10:33:10.810Z,2.93
2018-02-12T10:35:38.363Z,2.57
2018-02-12T10:38:05.925Z,3.03
2018-02-12T10:40:34.181Z,2.40
2018-02-12T10:43:01.775Z,2.00
2018-02-12T10:45:29.336Z,2.40
2018-02-12T10:47:56.932Z,2.40
2018-02-12T10:50:24.975Z,2.30
2018-02-12T10:52:52.568Z,2.00
2018-02-12T10:55:20.227Z,2.10
2018-02-12T10:57:48.196Z,2.57
2018-02-12T11:00:16.168Z,1.93
2018-02-12T11:02:44.630Z,2.00
2018-02-12T11:05:12.968Z,1.80
2018-02-12T11:07:40.485Z,2.33
2018-02-12T11:10:08.056Z,2.00
2018-02-12T11:12:35.585Z,2.47
2018-02-12T11:15:03.196Z,2.20
2018-02-12T11:17:30.732Z,2.20
2018-02-12T11:19:58.838Z,1.77
2018-02-12T11:22:26.432Z,1.90
2018-02-12T11:24:54.432Z,1.90
2018-02-12T11:27:22.063Z,2.00
2018-02-12T11:29:50.030Z,1.80
2018-02-12T11:32:17.596Z,1.60
2018-02-12T11:34:45.930Z,1.70
2018-02-12T11:37:13.503Z,1.80
2018-02-12T11:39:41.032Z,1.63
2018-02-12T11:42:08.627Z,1.97
2018-02-12T11:44:36.182Z,1.87
2018-02-12T11:47:03.790Z,1.60
2018-02-12T11:49:31.406Z,1.60
2018-02-12T11:51:59.622Z,1.97
2018-02-12T11:54:27.186Z,2.37
2018-02-12T11:56:54.774Z,2.23
2018-02-12T11:59:22.366Z,2.00
2018-02-12T12:01:50.367Z,2.30
2018-02-12T12:04:17.938Z,1.97
2018-02-12T12:06:45.522Z,2.13
2018-02-12T12:09:13.130Z,1.90
2018-02-12T12:11:40.716Z,1.83
2018-02-12T12:14:08.254Z,2.20
2018-02-12T12:16:35.916Z,1.90
2018-02-12T12:19:03.490Z,1.60
2018-02-12T12:21:31.040Z,2.07
2018-02-12T12:23:58.650Z,2.43
2018-02-12T12:26:26.263Z,2.07
2018-02-12T12:28:53.811Z,2.17
2018-02-12T12:31:21.393Z,2.10
2018-02-12T12:33:48.970Z,2.20
2018-02-12T12:36:16.511Z,2.20
2018-02-12T12:38:44.106Z,1.90
2018-02-12T12:41:11.671Z,1.80
2018-02-12T12:43:39.242Z,1.73
2018-02-12T12:46:07.146Z,2.13
2018-02-12T12:48:34.719Z,2.23
2018-02-12T12:51:02.350Z,2.37
2018-02-12T12:53:29.916Z,2.10
2018-02-12T12:55:57.471Z,1.80
2018-02-12T12:58:25.866Z,1.77
2018-02-12T13:00:53.514Z,1.57
2018-02-12T13:03:21.124Z,1.53
2018-02-12T13:05:48.737Z,1.30
2018-02-12T13:08:16.276Z,1.33
2018-02-12T13:10:43.909Z,1.83
2018-02-12T13:13:11.481Z,1.70
2018-02-12T13:15:39.445Z,2.07
2018-02-12T13:18:07.448Z,2.00
2018-02-12T13:20:34.981Z,2.20
2018-02-12T13:23:02.600Z,1.80
2018-02-12T13:25:30.187Z,1.60
2018-02-12T13:27:58.204Z,1.67
2018-02-12T13:30:25.787Z,1.90
2018-02-12T13:32:53.383Z,1.90
2018-02-12T13:35:21.336Z,1.70
2018-02-12T13:37:48.980Z,1.80
2018-02-12T13:40:16.561Z,2.00
2018-02-12T13:42:44.500Z,1.57
2018-02-12T13:45:12.075Z,1.63
2018-02-12T13:47:39.655Z,1.80
2018-02-12T13:50:07.231Z,1.97
2018-02-12T13:52:34.835Z,1.80
2018-02-12T13:55:02.355Z,1.83
2018-02-12T13:57:29.940Z,1.87
2018-02-12T13:59:57.495Z,2.13
2018-02-12T14:02:25.101Z,1.87
2018-02-12T14:04:53.569Z,2.10
2018-02-12T14:07:21.552Z,1.50
2018-02-12T14:09:49.490Z,2.00
2018-02-12T14:12:17.085Z,1.93
2018-02-12T14:14:44.660Z,1.87
2018-02-12T14:17:12.221Z,1.40
2018-02-12T14:19:39.785Z,1.80
2018-02-12T14:22:07.385Z,1.70
2018-02-12T14:24:35.363Z,2.10
2018-02-12T14:27:02.973Z,1.70
2018-02-12T14:29:30.593Z,2.20
2018-02-12T14:31:58.174Z,1.70
2018-02-12T14:34:25.811Z,1.80
2018-02-12T14:36:53.404Z,1.30
2018-02-12T14:39:20.998Z,1.60
2018-02-12T14:41:48.586Z,1.73
2018-02-12T14:44:16.179Z,2.20
2018-02-12T14:46:43.787Z,1.67
2018-02-12T14:49:11.371Z,1.63
2018-02-12T14:51:39.410Z,1.53
2018-02-12T14:54:06.986Z,1.40
2018-02-12T14:56:35.009Z,1.53
2018-02-12T14:59:02.581Z,1.30
2018-02-12T15:01:30.095Z,1.30
2018-02-12T15:03:57.657Z,2.03
2018-02-12T15:06:25.182Z,1.30
2018-02-12T15:08:52.757Z,1.47
2018-02-12T15:11:20.758Z,1.20
2018-02-12T15:13:48.369Z,1.60
2018-02-12T15:16:16.792Z,2.13
2018-02-12T15:18:44.367Z,1.60
2018-02-12T15:21:11.911Z,1.83
2018-02-12T15:23:39.571Z,1.80
2018-02-12T15:26:07.166Z,2.00
2018-02-12T15:28:34.714Z,1.67
2018-02-12T15:31:03.199Z,1.23
2018-02-12T15:33:30.852Z,1.83
2018-02-12T15:35:58.416Z,1.87
2018-02-12T15:38:25.982Z,1.50
2018-02-12T15:40:53.616Z,1.67
2018-02-12T15:43:21.227Z,2.03
2018-02-12T15:45:48.791Z,1.90
2018-02-12T15:48:16.807Z,1.60
2018-02-12T15:50:44.367Z,1.60
2018-02-12T15:53:11.975Z,2.03
2018-02-12T15:55:39.519Z,1.83
2018-02-12T15:58:07.232Z,1.77
2018-02-12T16:00:34.825Z,1.60
2018-02-12T16:03:02.415Z,2.00
2018-02-12T16:05:30.425Z,1.40
2018-02-12T16:07:58.070Z,1.70
2018-02-12T16:10:25.672Z,1.17
2018-02-12T16:12:53.278Z,1.90
2018-02-12T16:15:20.899Z,1.77
2018-02-12T16:17:48.503Z,2.40
2018-02-12T16:20:16.078Z,1.97
2018-02-12T16:22:43.666Z,1.93
2018-02-12T16:25:11.218Z,2.20
2018-02-12T16:27:38.822Z,1.70
2018-02-12T16:30:06.512Z,2.37
2018-02-12T16:32:34.060Z,2.03
2018-02-12T16:35:01.697Z,2.50
2018-02-12T16:37:29.255Z,2.53
2018-02-12T16:39:56.871Z,2.33
2018-02-12T16:42:24.432Z,1.90
2018-02-12T16:44:52.055Z,2.40
2018-02-12T16:47:19.679Z,2.63
2018-02-12T16:49:47.326Z,3.27
2018-02-12T16:52:14.901Z,2.20
2018-02-12T16:54:42.468Z,2.13
2018-02-12T16:57:12.733Z,1.90
2018-02-12T16:59:40.269Z,2.57
2018-02-12T19:17:32.685Z,2.10
2018-02-12T19:20:00.218Z,1.93
2018-02-12T19:45:31.148Z,2.80
2018-02-12T19:47:59.154Z,2.80
2018-02-12T19:50:26.752Z,2.63
2018-02-12T19:52:54.369Z,2.33
2018-02-12T19:55:21.970Z,2.73
2018-02-12T19:57:50.219Z,5.90
2018-02-12T20:00:17.827Z,6.73
2018-02-12T20:02:45.478Z,7.27
2018-02-12T20:05:13.049Z,3.70
2018-02-12T20:07:41.050Z,3.00
2018-02-12T20:10:08.661Z,3.53
2018-02-12T20:12:36.301Z,3.50
2018-02-12T20:15:03.914Z,2.90
2018-02-12T20:17:36.446Z,3.83
2018-02-12T20:20:04.072Z,3.23
2018-02-12T20:22:31.672Z,4.97
2018-02-12T20:24:59.289Z,4.57
2018-02-12T20:27:26.981Z,5.43
2018-02-12T20:29:54.471Z,3.63
2018-02-12T20:32:22.450Z,3.73
2018-02-12T20:34:50.057Z,4.20
2018-02-12T20:37:17.667Z,7.40
2018-02-12T20:39:45.676Z,9.70
2018-02-12T20:42:13.186Z,8.23
2018-02-12T20:44:40.695Z,4.13
2018-02-12T20:47:08.289Z,5.20
2018-02-12T20:49:35.880Z,4.83
2018-02-12T20:52:03.493Z,7.23
2018-02-12T20:54:31.106Z,3.33
2018-02-12T20:56:58.741Z,3.10
2018-02-12T20:59:26.421Z,3.10
2018-02-12T21:01:53.983Z,2.50
2018-02-12T21:04:27.555Z,2.53
2018-02-12T21:06:55.901Z,2.47
2018-02-12T21:09:23.797Z,2.77
2018-02-12T21:49:17.342Z,3.83
2018-02-12T21:51:44.947Z,4.37
2018-02-12T21:54:12.429Z,3.23
2018-02-12T21:56:40.434Z,3.60
2018-02-12T21:59:08.131Z,4.53
2018-02-12T22:01:35.719Z,4.00
2018-02-12T22:04:07.165Z,4.10
2018-02-12T22:06:35.155Z,3.87
2018-02-12T22:09:02.816Z,3.70
2018-02-12T22:11:30.468Z,4.00
2018-02-12T22:13:58.047Z,3.30
2018-02-12T22:16:25.621Z,2.93
2018-02-12T22:18:53.239Z,3.47
2018-02-12T22:21:20.843Z,5.70
2018-02-12T22:23:48.464Z,4.63
2018-02-12T22:26:16.187Z,4.23
2018-02-12T22:28:43.781Z,4.43
2018-02-12T22:31:11.384Z,4.47
2018-02-12T22:33:38.982Z,4.27
2018-02-12T22:36:06.984Z,5.10
2018-02-12T22:38:34.611Z,4.67
2018-02-12T22:41:02.541Z,3.70
2018-02-12T22:43:30.177Z,3.80
2018-02-12T22:45:57.753Z,3.83
2018-02-12T22:48:25.315Z,3.40
2018-02-12T22:50:52.945Z,3.10
2018-02-12T22:53:20.558Z,4.03
2018-02-12T22:55:48.182Z,3.90
2018-02-12T22:58:15.863Z,4.87
2018-02-12T23:00:43.423Z,4.23
2018-02-12T23:03:11.057Z,6.50
2018-02-12T23:05:38.695Z,6.30
2018-02-12T23:08:06.265Z,6.97
2018-02-12T23:10:33.849Z,6.70
2018-02-12T23:13:01.459Z,5.60
2018-02-12T23:15:33.947Z,4.73
2018-02-12T23:18:01.618Z,4.37
2018-02-12T23:20:29.264Z,5.13
2018-02-12T23:22:56.895Z,4.20
2018-02-12T23:25:24.501Z,4.97
2018-02-12T23:27:52.178Z,6.20
2018-02-12T23:30:19.819Z,10.27
2018-02-12T23:32:47.476Z,10.00
2018-02-12T23:35:15.079Z,8.67
2018-02-12T23:37:42.727Z,6.70
2018-02-12T23:40:10.340Z,6.57
2018-02-12T23:42:38.336Z,10.50
2018-02-12T23:45:05.969Z,16.33
2018-02-12T23:47:33.566Z,8.10
2018-02-12T23:50:01.217Z,7.47
2018-02-12T23:52:29.084Z,7.00
2018-02-12T23:54:56.721Z,5.97
2018-02-12T23:57:24.330Z,7.00
2018-02-12T23:59:51.981Z,6.53
